Time;durP1;ratioP1;P1;durP2;ratioP2;P2;SDS_P1;SDS_P2;PMS_P1;PMS_P2;Temp;Humidity;BMP_temperature;BMP_pressure;BME280_temperature;BME280_humidity;BME280_pressure;Samples;Min_cycle;Max_cycle;Signal;HPM_P1;HPM_P2
2022/01/02 00:00:05;;;;;;;17.83;13.55;;;7.80;99.90;;;;;;5114517;28;20224;-69
2022/01/02 00:02:34;;;;;;;18.45;14.43;;;7.60;99.90;;;;;;5114911;28;20201;-69
2022/01/02 00:05:04;;;;;;;17.35;13.13;;;7.70;99.90;;;;;;5114515;28;20232;-70
2022/01/02 00:07:34;;;;;;;17.70;14.13;;;7.70;99.90;;;;;;5114865;28;20221;-69
2022/01/02 00:10:04;;;;;;;16.83;12.88;;;7.80;99.90;;;;;;5114409;28;20755;-70
2022/01/02 00:12:33;;;;;;;16.08;14.15;;;7.80;99.90;;;;;;5114540;28;20205;-69
2022/01/02 00:15:05;;;;;;;18.92;13.93;;;7.70;99.90;;;;;;5114419;28;20197;-69
2022/01/02 00:17:33;;;;;;;18.40;12.70;;;7.60;99.90;;;;;;5114185;28;20232;-70
2022/01/02 00:20:09;;;;;;;18.65;14.00;;;7.70;99.90;;;;;;5114099;28;20312;-69
2022/01/02 00:22:39;;;;;;;15.32;12.57;;;7.70;99.90;;;;;;5114342;28;20222;-69
2022/01/02 00:25:12;;;;;;;15.65;12.65;;;7.80;99.90;;;;;;5114214;28;20626;-69
2022/01/02 00:27:40;;;;;;;16.13;12.02;;;7.80;99.90;;;;;;5114350;28;20224;-69
2022/01/02 00:30:09;;;;;;;16.85;12.93;;;7.70;99.90;;;;;;5114444;28;20198;-69
2022/01/02 00:32:37;;;;;;;15.90;12.75;;;7.70;99.90;;;;;;5114296;28;20201;-69
2022/01/02 00:35:05;;;;;;;15.00;12.00;;;7.60;99.90;;;;;;5113987;28;20197;-69
2022/01/02 00:37:32;;;;;;;15.13;12.23;;;7.60;99.90;;;;;;5114157;28;20221;-69
2022/01/02 00:39:59;;;;;;;14.77;12.13;;;7.60;99.90;;;;;;5114202;28;20312;-69
2022/01/02 00:42:30;;;;;;;16.23;12.23;;;7.60;99.90;;;;;;5114365;28;20205;-69
2022/01/02 00:45:05;;;;;;;15.20;12.77;;;7.60;99.90;;;;;;5114307;28;20209;-69
2022/01/02 00:47:51;;;;;;;14.65;11.90;;;7.50;99.90;;;;;;5114126;28;20216;-70
2022/01/02 00:50:21;;;;;;;16.15;12.30;;;7.50;99.90;;;;;;5115617;28;20262;-69
2022/01/02 00:52:50;;;;;;;14.82;11.82;;;7.50;99.90;;;;;;5118575;28;20201;-69
2022/01/02 00:55:21;;;;;;;15.63;12.15;;;7.40;99.90;;;;;;5118158;28;20203;-69
2022/01/02 00:57:57;;;;;;;14.80;11.63;;;7.40;99.90;;;;;;5117836;28;20231;-70
2022/01/02 01:00:24;;;;;;;14.57;11.75;;;7.40;99.90;;;;;;5117945;28;20215;-69
2022/01/02 01:02:54;;;;;;;16.30;10.80;;;7.40;99.90;;;;;;5117874;28;20201;-70
2022/01/02 01:05:23;;;;;;;15.35;11.90;;;7.40;99.90;;;;;;5118058;28;20201;-70
2022/01/02 01:07:53;;;;;;;13.27;11.27;;;7.50;99.90;;;;;;5117952;28;20243;-70
2022/01/02 01:10:21;;;;;;;11.90;10.48;;;7.40;99.90;;;;;;5118050;27;20197;-70
2022/01/02 01:12:51;;;;;;;14.73;11.00;;;7.50;99.90;;;;;;5118140;28;20209;-70
2022/01/02 01:15:18;;;;;;;13.55;10.90;;;7.50;99.90;;;;;;5117529;28;20213;-70
2022/01/02 01:17:46;;;;;;;14.82;11.52;;;7.50;99.90;;;;;;5117888;28;20224;-69
2022/01/02 01:20:15;;;;;;;13.93;11.10;;;7.40;99.90;;;;;;5117663;28;20228;-70
2022/01/02 01:22:43;;;;;;;12.75;10.25;;;7.50;99.90;;;;;;5117745;28;20204;-70
2022/01/02 01:25:15;;;;;;;15.93;10.90;;;7.40;99.90;;;;;;5117487;27;20197;-69
2022/01/02 01:27:42;;;;;;;14.57;11.45;;;7.40;99.90;;;;;;5117301;28;20226;-69
2022/01/02 01:30:10;;;;;;;14.68;11.93;;;7.40;99.90;;;;;;5117345;28;20596;-69
2022/01/02 01:32:38;;;;;;;13.27;11.30;;;7.40;99.90;;;;;;5117264;28;20244;-69
2022/01/02 01:35:06;;;;;;;14.23;11.50;;;7.40;99.90;;;;;;5117454;28;20213;-69
2022/01/02 01:37:34;;;;;;;14.07;11.80;;;7.40;99.90;;;;;;5116812;28;20759;-69
2022/01/02 01:40:02;;;;;;;16.20;11.52;;;7.30;99.90;;;;;;5117083;28;20224;-69
2022/01/02 01:42:35;;;;;;;13.65;10.65;;;7.30;99.90;;;;;;5117073;28;20212;-70
2022/01/02 01:45:28;;;;;;;12.75;10.57;;;7.40;99.90;;;;;;5116957;28;20543;-69
2022/01/02 01:47:57;;;;;;;11.85;10.07;;;7.40;99.90;;;;;;5116476;28;20227;-69
2022/01/02 01:50:26;;;;;;;13.85;11.48;;;7.40;99.90;;;;;;5117305;28;20566;-70
2022/01/02 01:52:55;;;;;;;12.88;10.75;;;7.40;99.90;;;;;;5116833;28;20201;-69
2022/01/02 01:55:22;;;;;;;12.50;10.90;;;7.30;99.90;;;;;;5116882;28;20201;-69
2022/01/02 01:57:51;;;;;;;13.45;10.77;;;7.30;99.90;;;;;;5116729;28;20581;-70
2022/01/02 02:00:21;;;;;;;11.15;9.75;;;7.30;99.90;;;;;;5116744;28;20572;-69
2022/01/02 02:02:48;;;;;;;13.25;10.48;;;7.30;99.90;;;;;;5115802;28;20212;-69
2022/01/02 02:05:15;;;;;;;11.13;9.80;;;7.20;99.90;;;;;;5117440;28;20197;-69
2022/01/02 02:07:43;;;;;;;16.50;12.43;;;7.30;99.90;;;;;;5116807;28;20224;-70
2022/01/02 02:10:15;;;;;;;14.52;11.55;;;7.30;99.90;;;;;;5116492;28;20292;-69
2022/01/02 02:12:46;;;;;;;13.00;11.18;;;7.20;99.90;;;;;;5117200;28;20186;-69
2022/01/02 02:15:15;;;;;;;12.75;9.98;;;7.30;99.90;;;;;;5117482;27;20677;-70
2022/01/02 02:17:43;;;;;;;12.35;10.20;;;7.30;99.90;;;;;;5116497;28;20312;-70
2022/01/02 02:20:15;;;;;;;14.10;11.82;;;7.20;99.90;;;;;;5116548;27;20582;-70
2022/01/02 02:22:45;;;;;;;14.05;10.75;;;7.20;99.90;;;;;;5116452;28;20197;-70
2022/01/02 02:25:15;;;;;;;13.05;10.55;;;7.20;99.90;;;;;;5116672;28;20227;-70
2022/01/02 02:27:48;;;;;;;13.15;11.55;;;7.20;99.90;;;;;;5116392;28;20230;-70
2022/01/02 02:30:15;;;;;;;13.65;11.18;;;7.00;99.90;;;;;;5116579;28;20186;-70
2022/01/02 02:32:42;;;;;;;14.75;12.10;;;7.00;99.90;;;;;;5116391;28;20208;-70
2022/01/02 02:35:09;;;;;;;15.40;12.52;;;7.00;99.90;;;;;;5116171;28;20229;-70
2022/01/02 02:37:42;;;;;;;16.70;13.10;;;7.00;99.90;;;;;;5116179;28;20224;-70
2022/01/02 02:40:10;;;;;;;15.15;12.60;;;6.90;99.90;;;;;;5116142;28;20217;-70
2022/01/02 02:42:44;;;;;;;14.32;11.60;;;6.90;99.90;;;;;;5116340;28;20288;-70
2022/01/02 02:50:46;;;;;;;12.88;10.75;;;6.90;99.90;;;;;;5116184;28;20177;-70
2022/01/02 02:53:15;;;;;;;13.00;10.18;;;7.00;99.90;;;;;;5115998;28;20208;-69
2022/01/02 02:55:46;;;;;;;12.35;10.60;;;7.00;99.90;;;;;;5115420;28;20201;-70
2022/01/02 03:01:12;;;;;;;16.13;11.30;;;7.00;99.90;;;;;;5112133;27;20521;-68
2022/01/02 03:03:40;;;;;;;14.68;10.68;;;7.00;99.90;;;;;;5111631;28;20546;-69
2022/01/02 03:06:07;;;;;;;13.27;11.00;;;7.00;99.90;;;;;;5111383;28;20228;-68
2022/01/02 03:08:35;;;;;;;15.35;12.50;;;7.00;99.90;;;;;;5112117;28;20551;-68
2022/01/02 03:11:02;;;;;;;13.63;12.02;;;6.90;99.90;;;;;;5111355;28;20201;-68
2022/01/02 03:13:29;;;;;;;16.88;12.55;;;6.80;99.90;;;;;;5111398;28;20293;-68
2022/01/02 03:15:56;;;;;;;14.57;11.75;;;6.80;99.90;;;;;;5111379;28;20203;-68
2022/01/02 03:18:24;;;;;;;15.13;12.20;;;6.80;99.90;;;;;;5111349;28;20292;-68
2022/01/02 03:20:51;;;;;;;15.20;11.98;;;6.70;99.90;;;;;;5111244;28;20221;-68
2022/01/02 03:23:18;;;;;;;15.27;11.82;;;6.70;99.90;;;;;;5111323;28;20202;-68
2022/01/02 03:25:45;;;;;;;13.55;11.70;;;6.70;99.90;;;;;;5111524;28;20297;-68
2022/01/02 03:28:12;;;;;;;16.17;12.65;;;6.70;99.90;;;;;;5111278;28;20216;-68
2022/01/02 03:30:39;;;;;;;16.42;12.52;;;6.50;99.90;;;;;;5111375;28;20244;-68
2022/01/02 03:33:06;;;;;;;15.02;11.80;;;6.40;99.90;;;;;;5111379;28;20209;-68
2022/01/02 03:35:35;;;;;;;16.33;12.18;;;6.40;99.90;;;;;;5110909;28;20197;-68
2022/01/02 03:38:03;;;;;;;16.73;12.02;;;6.40;99.90;;;;;;5110555;28;20225;-68
2022/01/02 03:40:29;;;;;;;13.80;11.20;;;6.50;99.90;;;;;;5110746;28;20225;-68
2022/01/02 03:42:56;;;;;;;15.52;12.02;;;6.50;99.90;;;;;;5110580;28;20296;-68
2022/01/02 03:45:23;;;;;;;14.48;12.50;;;6.50;99.90;;;;;;5110328;28;20208;-68
2022/01/02 03:47:50;;;;;;;15.90;12.65;;;6.60;99.90;;;;;;5111686;28;20312;-68
2022/01/02 03:50:17;;;;;;;15.02;12.25;;;6.50;99.90;;;;;;5110557;28;20198;-68
2022/01/02 03:52:45;;;;;;;13.60;11.45;;;6.60;99.90;;;;;;5110548;28;20292;-68
2022/01/02 03:55:12;;;;;;;16.38;12.18;;;6.40;99.90;;;;;;5110478;28;20212;-68
2022/01/02 03:57:39;;;;;;;14.63;11.35;;;6.50;99.90;;;;;;5110512;28;20228;-68
2022/01/02 04:00:09;;;;;;;13.43;10.25;;;6.50;99.90;;;;;;5110192;28;20687;-68
2022/01/02 04:02:37;;;;;;;13.05;10.95;;;6.60;99.90;;;;;;5110800;28;20202;-68
2022/01/02 04:05:05;;;;;;;12.55;10.40;;;6.50;99.90;;;;;;5110352;28;20244;-68
2022/01/02 04:07:32;;;;;;;12.27;10.00;;;6.60;99.90;;;;;;5110348;28;20222;-68
2022/01/02 04:10:05;;;;;;;13.05;10.65;;;6.60;99.90;;;;;;5110153;28;20652;-68
2022/01/02 04:12:32;;;;;;;13.88;11.32;;;6.60;99.90;;;;;;5096679;28;20563;-68
2022/01/02 04:15:00;;;;;;;13.25;10.80;;;6.50;99.90;;;;;;5097248;28;20199;-67
2022/01/02 04:17:27;;;;;;;11.23;10.07;;;6.50;99.90;;;;;;5096640;28;20222;-68
2022/01/02 04:19:54;;;;;;;14.55;11.30;;;6.40;99.90;;;;;;5096434;28;20226;-68
2022/01/02 04:22:20;;;;;;;14.73;11.23;;;6.40;99.90;;;;;;5096513;28;20202;-68
2022/01/02 04:24:49;;;;;;;13.88;10.70;;;6.30;99.90;;;;;;5096261;28;20206;-68
2022/01/02 04:27:19;;;;;;;11.00;9.07;;;6.10;99.90;;;;;;5096039;28;20244;-68
2022/01/02 04:29:45;;;;;;;13.27;9.57;;;6.10;99.90;;;;;;5096209;28;20198;-68
2022/01/02 04:32:12;;;;;;;11.30;9.65;;;6.20;99.90;;;;;;5096190;28;20208;-68
2022/01/02 04:34:40;;;;;;;11.05;9.73;;;6.20;99.90;;;;;;5096085;28;20198;-68
2022/01/02 04:37:07;;;;;;;12.10;9.07;;;6.10;99.90;;;;;;5095863;28;20226;-68
2022/01/02 04:39:34;;;;;;;14.60;11.52;;;6.20;99.90;;;;;;5095975;28;20217;-68
2022/01/02 04:42:01;;;;;;;15.45;11.48;;;6.30;99.90;;;;;;5096137;28;20234;-68
2022/01/02 04:44:29;;;;;;;13.35;11.93;;;6.30;99.90;;;;;;5096084;28;20208;-69
2022/01/02 04:46:56;;;;;;;18.13;11.80;;;6.40;99.90;;;;;;5097271;28;20230;-68
2022/01/02 04:49:23;;;;;;;15.82;12.38;;;6.40;99.90;;;;;;5096328;28;20199;-68
2022/01/02 04:51:52;;;;;;;13.35;11.45;;;6.50;99.90;;;;;;5095728;28;20678;-68
2022/01/02 04:54:19;;;;;;;12.70;10.95;;;6.50;99.90;;;;;;5096934;28;20202;-68
2022/01/02 04:56:46;;;;;;;14.55;10.90;;;6.50;99.90;;;;;;5097034;28;20217;-68
2022/01/02 04:59:12;;;;;;;12.70;10.18;;;6.50;99.90;;;;;;5096366;28;20305;-68
2022/01/02 05:01:41;;;;;;;10.45;9.35;;;6.50;99.90;;;;;;5095779;28;20621;-68
2022/01/02 05:04:07;;;;;;;11.98;9.02;;;6.50;99.90;;;;;;5095724;28;20202;-68
2022/01/02 05:06:34;;;;;;;9.38;8.38;;;6.50;99.90;;;;;;5095173;28;20310;-68
2022/01/02 05:09:01;;;;;;;12.75;9.15;;;6.50;99.90;;;;;;5095669;28;20202;-68
2022/01/02 05:11:28;;;;;;;10.75;8.20;;;6.60;99.90;;;;;;5095246;28;20234;-68
2022/01/02 05:13:55;;;;;;;11.82;7.55;;;6.60;99.90;;;;;;5095465;28;20201;-68
2022/01/02 05:16:22;;;;;;;9.68;7.28;;;6.60;99.90;;;;;;5095314;28;20583;-68
2022/01/02 05:18:50;;;;;;;8.52;7.43;;;6.60;99.90;;;;;;5095435;28;20308;-68
2022/01/02 05:21:17;;;;;;;10.93;7.93;;;6.60;99.90;;;;;;5096211;28;20530;-68
2022/01/02 05:23:44;;;;;;;9.50;7.93;;;6.60;99.90;;;;;;5094129;28;20198;-68
2022/01/02 05:26:11;;;;;;;8.10;7.22;;;6.60;99.90;;;;;;5094774;28;20250;-68
2022/01/02 05:28:37;;;;;;;9.52;7.55;;;6.60;99.90;;;;;;5095357;28;20293;-68
2022/01/02 05:31:04;;;;;;;11.00;8.50;;;6.60;99.90;;;;;;5095198;28;20605;-68
2022/01/02 05:33:31;;;;;;;12.05;9.10;;;6.60;99.90;;;;;;5095137;28;20224;-68
2022/01/02 05:35:59;;;;;;;10.85;8.80;;;6.70;99.90;;;;;;5094657;28;20202;-68
2022/01/02 05:38:26;;;;;;;8.50;7.60;;;6.60;99.90;;;;;;5094934;28;20202;-68
2022/01/02 05:40:54;;;;;;;13.52;11.20;;;6.40;99.90;;;;;;5094867;28;20218;-68
2022/01/02 05:43:21;;;;;;;12.23;10.75;;;6.50;99.90;;;;;;5094917;28;20212;-68
2022/01/02 05:45:48;;;;;;;13.43;10.77;;;6.50;99.90;;;;;;5094456;28;20241;-68
2022/01/02 05:48:15;;;;;;;13.05;10.07;;;6.60;99.90;;;;;;5094630;28;20690;-68
2022/01/02 05:50:41;;;;;;;12.68;10.88;;;6.70;99.90;;;;;;5094839;28;20237;-68
2022/01/02 05:53:10;;;;;;;13.63;11.18;;;6.70;99.90;;;;;;5094794;28;20629;-68
2022/01/02 05:55:37;;;;;;;13.32;11.25;;;6.60;99.90;;;;;;5094354;28;20578;-68
2022/01/02 05:58:04;;;;;;;14.57;11.23;;;6.60;99.90;;;;;;5094856;28;20565;-68
2022/01/02 06:00:31;;;;;;;13.43;10.55;;;6.50;99.90;;;;;;5094603;28;20232;-68
2022/01/02 06:02:58;;;;;;;12.93;10.85;;;6.40;99.90;;;;;;5094529;28;20722;-68
2022/01/02 06:05:25;;;;;;;11.43;10.00;;;6.40;99.90;;;;;;5094572;28;20237;-68
2022/01/02 06:07:52;;;;;;;14.38;10.55;;;6.50;99.90;;;;;;5094469;28;20310;-68
2022/01/02 06:10:20;;;;;;;14.45;10.63;;;6.60;99.90;;;;;;5094356;28;20656;-68
2022/01/02 06:12:47;;;;;;;12.90;11.10;;;6.70;99.90;;;;;;5094602;28;20297;-68
2022/01/02 06:15:13;;;;;;;14.77;11.23;;;6.60;99.90;;;;;;5094102;28;20198;-68
2022/01/02 06:17:40;;;;;;;15.35;11.88;;;6.50;99.90;;;;;;5094608;28;20225;-68
2022/01/02 06:20:08;;;;;;;14.25;12.20;;;6.30;99.90;;;;;;5094498;28;20222;-68
2022/01/02 06:22:35;;;;;;;13.10;10.40;;;6.30;99.90;;;;;;5094478;28;20209;-68
2022/01/02 06:25:02;;;;;;;14.43;11.82;;;6.20;99.90;;;;;;5094141;28;20202;-68
2022/01/02 06:27:30;;;;;;;16.35;13.40;;;6.20;99.90;;;;;;5094338;28;20229;-68
2022/01/02 06:29:56;;;;;;;13.60;11.20;;;6.10;99.90;;;;;;5094371;28;20202;-68
2022/01/02 06:32:23;;;;;;;15.30;12.15;;;6.00;99.90;;;;;;5094450;28;20294;-68
2022/01/02 06:34:50;;;;;;;16.80;12.75;;;6.10;99.90;;;;;;5093927;28;20289;-68
2022/01/02 06:37:17;;;;;;;14.13;12.23;;;6.10;99.90;;;;;;5094084;28;20230;-68
2022/01/02 06:39:44;;;;;;;16.90;13.00;;;6.10;99.90;;;;;;5094624;28;20320;-68
2022/01/02 06:42:11;;;;;;;17.77;12.85;;;6.10;99.90;;;;;;5094419;28;20620;-68
2022/01/02 06:44:39;;;;;;;16.05;12.85;;;6.10;99.90;;;;;;5094096;28;20209;-68
2022/01/02 06:47:06;;;;;;;15.10;12.07;;;6.00;99.90;;;;;;5094071;28;20218;-68
2022/01/02 06:49:33;;;;;;;15.85;12.38;;;6.10;99.90;;;;;;5094029;28;20208;-68
2022/01/02 06:52:00;;;;;;;14.65;11.98;;;6.30;99.90;;;;;;5094087;28;20297;-68
2022/01/02 06:54:27;;;;;;;15.02;11.75;;;6.30;99.90;;;;;;5093863;28;20212;-68
2022/01/02 06:56:53;;;;;;;14.70;12.23;;;6.40;99.90;;;;;;5094254;28;20226;-68
2022/01/02 06:59:20;;;;;;;16.10;11.70;;;6.60;99.90;;;;;;5093712;28;20224;-68
2022/01/02 07:01:48;;;;;;;19.15;12.98;;;6.60;99.90;;;;;;5094164;28;20225;-68
2022/01/02 07:04:15;;;;;;;16.67;12.95;;;6.70;99.90;;;;;;5093845;28;20208;-68
2022/01/02 07:06:42;;;;;;;17.45;12.43;;;6.60;99.90;;;;;;5093508;28;20261;-68
2022/01/02 07:09:09;;;;;;;15.35;13.05;;;6.40;99.90;;;;;;5093619;28;20256;-68
2022/01/02 07:11:36;;;;;;;16.45;13.20;;;6.20;99.90;;;;;;5093832;28;20581;-68
2022/01/02 07:14:03;;;;;;;16.27;11.98;;;6.00;99.90;;;;;;5093631;28;20201;-68
2022/01/02 07:16:29;;;;;;;13.57;11.65;;;6.00;99.90;;;;;;5093408;28;20222;-68
2022/01/02 07:18:58;;;;;;;14.05;11.15;;;6.00;99.90;;;;;;5094084;28;20647;-68
2022/01/02 07:21:25;;;;;;;13.23;11.65;;;6.00;99.90;;;;;;5093613;28;20226;-68
2022/01/02 07:23:52;;;;;;;14.50;11.52;;;6.10;99.90;;;;;;5094095;28;20212;-68
2022/01/02 07:26:19;;;;;;;14.50;12.23;;;6.20;99.90;;;;;;5093683;28;20230;-68
2022/01/02 07:28:46;;;;;;;14.35;11.40;;;6.30;99.90;;;;;;5095229;28;20285;-68
2022/01/02 07:31:13;;;;;;;13.30;11.30;;;6.40;99.90;;;;;;5093729;28;20198;-68
2022/01/02 07:33:40;;;;;;;14.25;11.80;;;6.50;99.90;;;;;;5093559;28;20198;-68
2022/01/02 07:36:08;;;;;;;17.00;13.07;;;6.40;99.90;;;;;;5094436;28;20222;-68
2022/01/02 07:38:35;;;;;;;15.05;11.88;;;6.30;99.90;;;;;;5094659;28;20198;-68
2022/01/02 07:41:01;;;;;;;13.18;10.75;;;6.40;99.90;;;;;;5093493;28;20313;-68
2022/01/02 07:43:28;;;;;;;14.32;10.82;;;6.40;99.90;;;;;;5093186;28;20293;-68
2022/01/02 07:45:55;;;;;;;11.98;10.60;;;6.50;99.90;;;;;;5093507;28;20296;-68
2022/01/02 07:48:22;;;;;;;13.05;10.35;;;6.50;99.90;;;;;;5096918;28;20679;-68
2022/01/02 07:50:49;;;;;;;14.27;10.82;;;6.60;99.90;;;;;;5097214;28;20198;-68
2022/01/02 07:53:17;;;;;;;12.80;11.48;;;6.60;99.90;;;;;;5096880;28;20198;-68
2022/01/02 07:55:44;;;;;;;15.35;11.43;;;6.60;99.90;;;;;;5096932;28;20210;-68
2022/01/02 07:58:11;;;;;;;11.70;10.50;;;6.60;99.90;;;;;;5096729;28;20664;-68
2022/01/02 08:00:37;;;;;;;13.38;10.32;;;6.50;99.90;;;;;;5096413;28;20317;-68
2022/01/02 08:03:04;;;;;;;12.80;10.70;;;6.40;99.90;;;;;;5096910;28;20296;-68
2022/01/02 08:05:31;;;;;;;13.00;10.82;;;6.30;99.90;;;;;;5096848;28;20606;-68
2022/01/02 08:07:58;;;;;;;10.65;8.98;;;6.30;99.90;;;;;;5096717;28;20222;-68
2022/01/02 08:10:27;;;;;;;13.25;10.00;;;6.50;99.90;;;;;;5096818;28;20209;-68
2022/01/02 08:12:54;;;;;;;11.43;10.23;;;6.60;99.90;;;;;;5096596;28;20237;-68
2022/01/02 08:15:21;;;;;;;12.27;10.52;;;6.70;99.90;;;;;;5096129;28;20684;-68
2022/01/02 08:17:53;;;;;;;11.82;10.50;;;6.80;99.90;;;;;;5096696;28;20250;-68
2022/01/02 08:20:20;;;;;;;11.45;10.25;;;6.90;99.90;;;;;;5096832;28;20293;-68
2022/01/02 08:22:48;;;;;;;13.32;11.13;;;6.90;99.90;;;;;;5096737;28;20657;-68
2022/01/02 08:25:15;;;;;;;11.32;10.23;;;7.00;99.90;;;;;;5096437;28;20253;-68
2022/01/02 08:27:43;;;;;;;13.20;11.18;;;7.00;99.90;;;;;;5096866;28;20225;-68
2022/01/02 08:30:10;;;;;;;14.40;11.40;;;6.80;99.90;;;;;;5096412;28;20732;-68
2022/01/02 08:32:38;;;;;;;14.68;13.15;;;6.80;99.90;;;;;;5096289;28;20285;-68
2022/01/02 08:35:06;;;;;;;13.45;11.32;;;6.70;99.90;;;;;;5096202;28;20297;-68
2022/01/02 08:37:33;;;;;;;16.27;12.82;;;6.80;99.90;;;;;;5096150;28;20218;-68
2022/01/02 08:40:00;;;;;;;15.32;13.55;;;6.90;99.90;;;;;;5096132;28;20202;-68
2022/01/02 08:42:26;;;;;;;14.55;12.93;;;7.00;99.90;;;;;;5096024;28;20317;-68
2022/01/02 08:44:55;;;;;;;15.48;12.93;;;7.10;99.90;;;;;;5095963;28;20190;-68
2022/01/02 08:47:21;;;;;;;14.05;12.55;;;7.20;99.90;;;;;;5095960;28;20230;-68
2022/01/02 08:49:48;;;;;;;15.93;13.65;;;7.40;99.90;;;;;;5096066;28;20293;-68
2022/01/02 08:52:15;;;;;;;14.88;12.93;;;7.40;99.90;;;;;;5095809;28;20230;-68
2022/01/02 08:54:42;;;;;;;17.20;13.90;;;7.50;99.90;;;;;;5095392;28;20205;-68
2022/01/02 08:57:10;;;;;;;16.48;13.45;;;7.50;99.90;;;;;;5095679;28;20309;-68
2022/01/02 08:59:36;;;;;;;15.70;13.60;;;7.50;99.90;;;;;;5095602;28;20561;-68
2022/01/02 09:02:05;;;;;;;15.25;13.75;;;7.70;99.90;;;;;;5095649;28;20308;-68
2022/01/02 09:04:32;;;;;;;16.80;12.85;;;7.90;99.90;;;;;;5095395;28;20739;-67
2022/01/02 09:06:58;;;;;;;15.93;14.25;;;7.80;99.90;;;;;;5095262;28;20251;-68
2022/01/02 09:09:25;;;;;;;15.25;13.25;;;7.90;99.90;;;;;;5095613;28;20208;-68
2022/01/02 09:11:52;;;;;;;16.92;13.13;;;7.80;99.90;;;;;;5095563;28;20293;-68
2022/01/02 09:14:19;;;;;;;14.75;12.70;;;8.10;99.90;;;;;;5095570;28;20208;-68
2022/01/02 09:16:46;;;;;;;14.63;12.50;;;8.20;99.90;;;;;;5095296;28;20228;-68
2022/01/02 09:19:14;;;;;;;15.02;13.02;;;8.30;99.90;;;;;;5095571;28;20228;-68
2022/01/02 09:21:41;;;;;;;15.45;13.65;;;8.40;99.90;;;;;;5095214;28;20226;-68
2022/01/02 09:24:08;;;;;;;16.50;14.18;;;8.40;99.90;;;;;;5095349;28;20202;-68
2022/01/02 09:26:35;;;;;;;16.40;13.15;;;8.40;99.90;;;;;;5094767;28;20229;-68
2022/01/02 09:29:03;;;;;;;16.08;13.23;;;8.50;99.90;;;;;;5095291;28;20212;-68
2022/01/02 09:31:30;;;;;;;13.90;12.13;;;8.50;99.90;;;;;;5095103;28;20202;-68
2022/01/02 09:33:57;;;;;;;15.25;13.25;;;8.40;99.90;;;;;;5094827;28;20293;-68
2022/01/02 09:36:25;;;;;;;15.45;13.85;;;8.30;99.90;;;;;;5094613;28;20226;-68
2022/01/02 09:38:54;;;;;;;12.95;11.48;;;8.40;99.90;;;;;;5094773;28;20739;-68
2022/01/02 09:41:21;;;;;;;15.75;12.65;;;8.50;99.90;;;;;;5094700;28;20218;-68
2022/01/02 09:43:48;;;;;;;14.27;12.00;;;8.70;99.90;;;;;;5094872;28;20210;-68
2022/01/02 09:46:19;;;;;;;14.77;11.80;;;8.90;99.90;;;;;;5094681;28;20249;-68
2022/01/02 09:48:47;;;;;;;13.90;12.27;;;9.10;99.90;;;;;;5094621;28;20651;-68
2022/01/02 09:51:13;;;;;;;13.93;12.38;;;9.10;99.90;;;;;;5094801;28;20305;-68
2022/01/02 09:53:42;;;;;;;14.52;13.00;;;9.20;99.90;;;;;;5094729;28;20199;-68
2022/01/02 09:56:09;;;;;;;14.30;12.80;;;9.20;99.90;;;;;;5094379;28;20254;-68
2022/01/02 09:58:36;;;;;;;16.08;13.60;;;9.10;99.90;;;;;;5094758;28;20202;-69
2022/01/02 10:01:04;;;;;;;16.35;13.48;;;9.10;99.90;;;;;;5094446;28;20619;-68
2022/01/02 10:03:42;;;;;;;13.73;12.27;;;9.00;99.90;;;;;;5094554;28;20289;-68
2022/01/02 10:06:09;;;;;;;14.02;12.13;;;9.00;99.90;;;;;;5094328;28;20226;-68
2022/01/02 10:08:36;;;;;;;13.27;11.77;;;9.00;99.90;;;;;;5095419;28;20229;-68
2022/01/02 10:11:07;;;;;;;12.93;11.63;;;9.00;99.90;;;;;;5095025;28;20241;-68
2022/01/02 10:13:42;;;;;;;15.75;12.55;;;9.20;99.90;;;;;;5094483;28;20190;-68
2022/01/02 10:16:40;;;;;;;14.15;12.65;;;9.30;99.90;;;;;;5094602;28;20228;-68
2022/01/02 10:19:21;;;;;;;14.55;13.05;;;9.60;99.90;;;;;;5033598;28;20208;-68
2022/01/02 10:21:54;;;;;;;15.07;12.63;;;9.60;99.90;;;;;;5085748;28;20588;-68
2022/01/02 10:24:23;;;;;;;14.68;13.18;;;9.70;99.90;;;;;;5094134;28;20654;-68
2022/01/02 10:27:10;;;;;;;14.02;12.52;;;9.60;99.90;;;;;;5094468;28;20312;-68
2022/01/02 10:29:51;;;;;;;14.40;12.75;;;9.50;99.90;;;;;;5094497;28;20568;-68
2022/01/02 10:32:30;;;;;;;13.52;11.88;;;9.40;99.90;;;;;;5094213;28;20198;-68
2022/01/02 10:35:09;;;;;;;13.20;11.80;;;9.30;99.90;;;;;;5094083;28;20771;-68
2022/01/02 10:37:37;;;;;;;13.35;11.60;;;9.20;99.90;;;;;;5093723;28;20222;-68
2022/01/02 10:40:06;;;;;;;13.23;11.80;;;9.10;99.90;;;;;;5094102;28;20206;-68
2022/01/02 10:42:42;;;;;;;12.98;11.57;;;9.00;99.90;;;;;;5093984;28;20222;-68
2022/01/02 10:45:09;;;;;;;12.73;11.43;;;8.90;99.90;;;;;;5093758;28;20212;-68
2022/01/02 10:47:36;;;;;;;13.70;12.30;;;9.00;99.90;;;;;;5093936;28;20280;-68
2022/01/02 10:50:06;;;;;;;13.73;11.20;;;9.10;99.90;;;;;;5093893;28;20267;-68
2022/01/02 10:52:35;;;;;;;17.58;15.57;;;9.30;99.90;;;;;;5093951;28;20208;-68
2022/01/02 10:55:13;;;;;;;16.15;14.43;;;9.40;99.90;;;;;;5093666;28;20309;-68
2022/01/02 10:57:42;;;;;;;12.35;10.88;;;9.50;99.90;;;;;;5093484;28;20225;-68
2022/01/02 11:00:11;;;;;;;17.30;15.10;;;9.60;99.90;;;;;;5093352;28;20319;-68
2022/01/02 11:02:40;;;;;;;16.35;14.73;;;9.70;99.90;;;;;;5093797;28;20226;-68
2022/01/02 11:05:10;;;;;;;15.60;13.45;;;9.80;99.90;;;;;;5093397;28;20206;-68
2022/01/02 11:07:40;;;;;;;15.32;13.52;;;9.80;99.90;;;;;;5094487;28;20564;-68
2022/01/02 11:10:09;;;;;;;17.13;13.15;;;9.80;99.90;;;;;;5093683;28;20209;-68
2022/01/02 11:12:38;;;;;;;15.20;13.75;;;9.80;99.90;;;;;;5093473;28;20652;-68
2022/01/02 11:15:09;;;;;;;15.85;14.02;;;9.80;99.90;;;;;;5093426;28;20208;-68
2022/01/02 11:17:36;;;;;;;16.55;14.18;;;9.80;99.90;;;;;;5093282;28;20222;-68
2022/01/02 11:20:04;;;;;;;16.45;14.60;;;9.70;99.90;;;;;;5093671;28;20298;-68
2022/01/02 11:22:35;;;;;;;16.95;13.88;;;9.60;99.90;;;;;;5096791;28;20228;-68
2022/01/02 11:25:07;;;;;;;17.95;16.13;;;9.60;99.90;;;;;;5097575;28;20229;-68
2022/01/02 11:27:41;;;;;;;19.90;16.92;;;9.60;99.90;;;;;;5097631;28;20584;-68
2022/01/02 11:30:38;;;;;;;25.20;21.35;;;9.70;99.90;;;;;;5097376;28;20192;-68
2022/01/02 11:33:07;;;;;;;20.65;18.15;;;9.80;99.90;;;;;;5097387;28;20606;-68
2022/01/02 11:35:35;;;;;;;19.17;17.17;;;9.80;99.90;;;;;;5097695;28;20552;-68
2022/01/02 11:38:03;;;;;;;16.67;14.93;;;10.00;99.90;;;;;;5097420;28;20221;-68
2022/01/02 11:41:01;;;;;;;20.30;16.85;;;10.10;99.90;;;;;;5097370;28;20579;-68
2022/01/02 11:43:53;;;;;;;18.08;16.17;;;10.20;99.90;;;;;;5096956;28;20276;-68
2022/01/02 11:46:24;;;;;;;17.73;15.55;;;10.30;99.90;;;;;;5096758;28;20229;-68
2022/01/02 11:49:20;;;;;;;16.83;14.75;;;10.30;99.90;;;;;;5096879;28;20213;-68
2022/01/02 11:52:21;;;;;;;18.52;15.45;;;10.30;99.90;;;;;;5097091;28;20612;-68
2022/01/02 11:54:53;;;;;;;20.90;15.80;;;10.20;99.90;;;;;;5096862;28;20209;-68
2022/01/02 11:57:54;;;;;;;20.00;16.33;;;10.10;99.90;;;;;;5096954;28;20226;-68
2022/01/02 12:00:45;;;;;;;19.38;17.27;;;10.00;99.90;;;;;;5096559;28;20253;-68
2022/01/02 12:03:48;;;;;;;22.08;18.88;;;10.00;99.90;;;;;;5096675;28;20228;-68
2022/01/02 12:06:33;;;;;;;22.77;17.60;;;10.00;99.90;;;;;;5096411;28;20637;-68
2022/01/02 12:09:01;;;;;;;21.50;17.45;;;10.00;99.90;;;;;;5096775;28;20202;-68
2022/01/02 12:11:44;;;;;;;24.55;19.17;;;10.00;99.90;;;;;;5096701;28;20206;-68
2022/01/02 12:14:19;;;;;;;21.48;18.13;;;10.10;99.90;;;;;;5096727;28;20225;-68
2022/01/02 12:16:57;;;;;;;21.05;18.05;;;10.20;99.90;;;;;;5096487;28;20228;-68
2022/01/02 12:19:25;;;;;;;14.80;11.73;;;10.20;99.90;;;;;;5096678;28;20210;-68
2022/01/02 12:22:19;;;;;;;17.45;14.70;;;10.20;99.90;;;;;;5096490;28;20285;-68
2022/01/02 12:24:46;;;;;;;6.75;5.15;;;10.40;99.90;;;;;;5060054;28;20288;-68
2022/01/02 12:27:14;;;;;;;4.63;3.25;;;10.80;99.90;;;;;;5096097;28;20241;-68
2022/01/02 12:29:42;;;;;;;3.60;3.30;;;11.30;99.90;;;;;;5096075;28;20301;-68
2022/01/02 12:32:10;;;;;;;1.90;1.77;;;11.80;99.90;;;;;;5095694;28;20252;-68
2022/01/02 12:34:40;;;;;;;2.13;1.80;;;12.40;99.90;;;;;;5095821;28;20248;-68
2022/01/02 12:37:07;;;;;;;1.70;1.60;;;12.90;99.60;;;;;;5096193;28;20257;-68
2022/01/02 12:39:35;;;;;;;3.17;1.70;;;13.30;97.90;;;;;;5095940;28;20663;-68
2022/01/02 12:42:04;;;;;;;2.42;2.00;;;13.70;97.40;;;;;;5095995;28;20309;-68
2022/01/02 12:44:33;;;;;;;2.05;1.95;;;13.90;95.70;;;;;;5095962;28;20204;-68
2022/01/02 12:47:02;;;;;;;1.83;1.73;;;14.20;95.10;;;;;;5096173;28;20230;-68
2022/01/02 12:49:30;;;;;;;2.05;1.85;;;14.30;93.90;;;;;;5097000;28;20210;-68
2022/01/02 12:52:01;;;;;;;1.98;1.88;;;14.40;93.90;;;;;;5096918;28;20298;-68
2022/01/02 12:54:30;;;;;;;4.35;3.83;;;14.60;93.20;;;;;;5095472;28;20234;-68
2022/01/02 12:56:58;;;;;;;3.75;3.45;;;14.70;93.40;;;;;;5095831;28;20283;-68